KBDL/BDL METAR and TAF weather

Enter ICAO airport designator
Station Type Date Time Source
KBDL METAR 2020/09/18 15:51 UTC NOAA

KBDL 181551Z 36015KT 10SM SCT021 BKN030 OVC045 16/09 A3001 RMK AO2 SLP162 T01560094


Station Type Date Time Source
KBDL Decoded METAR 2020/09/18 15:51 UTC NOAA

BRADLEY INTERNATIONAL AIRPORT , CT, United States (KBDL) 41-56N 072-41W 60M
Sep 18, 2020 - 11:51 AM EDT / 2020.09.18 1551 UTC
Wind: from the N (360 degrees) at 17 MPH (15 KT):0
Visibility: 10 mile(s):0
Sky conditions: overcast
Temperature: 60.1 F (15.6 C)
Dew Point: 48.9 F (9.4 C)
Relative Humidity: 66%
Pressure (altimeter): 30.01 in. Hg (1016 hPa)
ob: KBDL 181551Z 36015KT 10SM SCT021 BKN030 OVC045 16/09 A3001 RMK AO2 SLP162 T01560094
cycle: 16

Station Type Date Time Source
KBDL TAF 2020/09/18 14:22 UTC NOAA

TAF
AMD KBDL 181420Z 1814/1918 01010G18KT P6SM BKN029 BKN040 BKN250
FM181700 36011G21KT P6SM SCT050
FM190000 35007KT P6SM SKC
FM191300 01009KT P6SM SKC

Example: see airport list